メインページ
METAR-TAF:

METAR-TAF

空港 :

ノイバイ国際空港

ハノイ, ベトナム

緯度: 21-01N, 経度: 105-48E, 海抜: 6m

現時点の気象観測

当レポートは27分前の19:00(UTC)に作成
の風 4kt
気温 26°C
湿度 100%
気圧 1011 hPa
視程: 2400m
高度1400ftの雲はほとんどない
高度2300ftの千切れ雲あり
高度3000ftの雲は散在している, 積乱雲.
激しい雷雨, 大雨

METAR: VVNB 181900Z 08004KT 2400 +TSRA FEW014 BKN023 SCT030CB 26/26 Q1011 TEMPO TL1915 1200 +TSRA

時間: 02:27 (19:27 UTC)

予報

当レポートは2時間27分前の17:00(UTC)に作成
予報は18日の 18時(UTC)から 19日の 18時(UTC)まで有効
北東の風 6kt
視程10km以上
高度1500ftの雲は散在している
高度3000ftの千切れ雲あり
18日の 18時(UTC)から 18日の 22時(UTC)まで一時的に
視程: 3000m
高度1000ftの雲は散在している
高度2700ftの雲はほとんどない, 積乱雲.
高度4000ftの千切れ雲あり
激しい雷雨, 大雨
18日の 22時(UTC)から 19日の 02時(UTC)まで一時的に
視程: 4000m
高度800ftの雲は散在している
高度4000ftの千切れ雲あり
小雨, 靄
19日の 05時(UTC)から 19日の 08時(UTC)まで一時的に
視程: 3000m
高度1500ftの千切れ雲あり
高度3000ftの雲はほとんどない, 積乱雲.
激しい雷雨, 大雨

TAF: VVNB 181700Z 1818/1918 05006KT 9999 SCT015 BKN030 TEMPO 1818/1822 3000 +TSRA SCT010 FEW027CB BKN040 TEMPO 1822/1902 4000 -RA BR SCT008 BKN040 TEMPO 1905/1908 3000 +TSRA BKN015 FEW030CB

4,000以上の空港の気象観測と天気予報(METAR報とTAF報)

利用可能な観測所は地図上に黄色い丸と赤い丸で示す。

丸の上にカーソルを重ねると観測所名を参照できる。

次にクリックすると気象観測と天気予報を参照できる。

マップの切り替え:黒色「×」印の緑ボタンをクリックして拡大、「-」印の緑ボタンをクリックして縮小、緑色の三角印をクリックして隣りの地図に切り替え


METAR-TAF: